sensor_id;sensor_type;location;lat;lon;timestamp;pressure;altitude;pressure_sealevel;temperature;humidity
69245;BME280;56357;52.304;4.870;2023-11-21T00:00:58;101286.31;;;18.30;61.25
69245;BME280;56357;52.304;4.870;2023-11-21T00:03:26;101282.66;;;18.29;61.10
69245;BME280;56357;52.304;4.870;2023-11-21T00:05:53;101279.56;;;18.26;61.52
69245;BME280;56357;52.304;4.870;2023-11-21T00:08:19;101283.22;;;18.26;61.40
69245;BME280;56357;52.304;4.870;2023-11-21T00:10:45;101292.78;;;18.31;61.29
69245;BME280;56357;52.304;4.870;2023-11-21T00:13:13;101291.63;;;18.26;61.12
69245;BME280;56357;52.304;4.870;2023-11-21T00:15:40;101287.97;;;18.26;60.88
69245;BME280;56357;52.304;4.870;2023-11-21T00:18:06;101297.81;;;18.28;60.62
69245;BME280;56357;52.304;4.870;2023-11-21T00:20:32;101298.34;;;18.25;60.98
69245;BME280;56357;52.304;4.870;2023-11-21T00:22:59;101293.56;;;18.26;61.25
69245;BME280;56357;52.304;4.870;2023-11-21T00:25:27;101291.94;;;18.30;60.68
69245;BME280;56357;52.304;4.870;2023-11-21T00:27:54;101291.88;;;18.25;61.07
69245;BME280;56357;52.304;4.870;2023-11-21T00:30:20;101298.34;;;18.25;60.84
69245;BME280;56357;52.304;4.870;2023-11-21T00:32:47;101295.22;;;18.17;60.93
69245;BME280;56357;52.304;4.870;2023-11-21T00:35:13;101305.59;;;18.21;61.02
69245;BME280;56357;52.304;4.870;2023-11-21T00:37:41;101295.50;;;18.20;61.09
69245;BME280;56357;52.304;4.870;2023-11-21T00:40:08;101305.66;;;18.26;60.78
69245;BME280;56357;52.304;4.870;2023-11-21T00:42:34;101300.81;;;18.17;60.79
69245;BME280;56357;52.304;4.870;2023-11-21T00:45:00;101305.91;;;18.25;60.78
69245;BME280;56357;52.304;4.870;2023-11-21T00:47:28;101307.56;;;18.21;61.20
69245;BME280;56357;52.304;4.870;2023-11-21T00:49:55;101313.44;;;18.19;61.02
69245;BME280;56357;52.304;4.870;2023-11-21T00:52:22;101313.22;;;18.26;60.72
69245;BME280;56357;52.304;4.870;2023-11-21T00:54:48;101303.06;;;18.20;60.83
69245;BME280;56357;52.304;4.870;2023-11-21T00:57:14;101305.56;;;18.16;61.28
69245;BME280;56357;52.304;4.870;2023-11-21T00:59:41;101308.97;;;18.23;61.24
69245;BME280;56357;52.304;4.870;2023-11-21T01:02:08;101313.19;;;18.21;60.49
69245;BME280;56357;52.304;4.870;2023-11-21T01:04:36;101316.22;;;18.19;60.85
69245;BME280;56357;52.304;4.870;2023-11-21T01:07:02;101319.88;;;18.20;60.81
69245;BME280;56357;52.304;4.870;2023-11-21T01:09:30;101322.41;;;18.21;60.87
69245;BME280;56357;52.304;4.870;2023-11-21T01:11:57;101319.31;;;18.18;61.14
69245;BME280;56357;52.304;4.870;2023-11-21T01:14:24;101319.00;;;18.14;60.98
69245;BME280;56357;52.304;4.870;2023-11-21T01:16:52;101328.56;;;18.18;60.79
69245;BME280;56357;52.304;4.870;2023-11-21T01:19:18;101329.69;;;18.17;60.97
69245;BME280;56357;52.304;4.870;2023-11-21T01:21:45;101342.31;;;18.20;60.91
69245;BME280;56357;52.304;4.870;2023-11-21T01:24:12;101337.22;;;18.12;60.99
69245;BME280;56357;52.304;4.870;2023-11-21T01:26:38;101342.53;;;18.13;61.02
69245;BME280;56357;52.304;4.870;2023-11-21T01:29:05;101347.03;;;18.14;61.19
69245;BME280;56357;52.304;4.870;2023-11-21T01:31:31;101349.84;;;18.14;60.94
69245;BME280;56357;52.304;4.870;2023-11-21T01:33:57;101353.50;;;18.15;61.20
69245;BME280;56357;52.304;4.870;2023-11-21T01:36:32;101363.88;;;18.19;60.88
69245;BME280;56357;52.304;4.870;2023-11-21T01:38:59;101359.88;;;18.05;61.32
69245;BME280;56357;52.304;4.870;2023-11-21T01:41:26;101359.63;;;18.12;61.21
69245;BME280;56357;52.304;4.870;2023-11-21T01:43:53;101364.41;;;18.11;61.23
69245;BME280;56357;52.304;4.870;2023-11-21T01:46:20;101361.34;;;18.13;60.88
69245;BME280;56357;52.304;4.870;2023-11-21T01:48:48;101364.16;;;18.18;60.91
69245;BME280;56357;52.304;4.870;2023-11-21T01:51:15;101368.63;;;18.14;61.20
69245;BME280;56357;52.304;4.870;2023-11-21T01:53:42;101363.25;;;18.07;61.21
69245;BME280;56357;52.304;4.870;2023-11-21T01:56:12;101369.47;;;18.14;60.50
69245;BME280;56357;52.304;4.870;2023-11-21T01:58:39;101368.34;;;18.15;61.03
69245;BME280;56357;52.304;4.870;2023-11-21T02:01:06;101377.34;;;18.17;61.22
69245;BME280;56357;52.304;4.870;2023-11-21T02:03:32;101381.84;;;18.18;60.81
69245;BME280;56357;52.304;4.870;2023-11-21T02:05:59;101369.78;;;18.18;60.65
69245;BME280;56357;52.304;4.870;2023-11-21T02:08:25;101382.59;;;18.09;60.75
69245;BME280;56357;52.304;4.870;2023-11-21T02:10:52;101376.44;;;18.07;61.07
69245;BME280;56357;52.304;4.870;2023-11-21T02:13:18;101376.44;;;18.07;60.73
69245;BME280;56357;52.304;4.870;2023-11-21T02:15:44;101378.94;;;18.08;60.71
69245;BME280;56357;52.304;4.870;2023-11-21T02:18:12;101383.97;;;18.06;60.88
69245;BME280;56357;52.304;4.870;2023-11-21T02:20:40;101384.84;;;18.07;60.78
69245;BME280;56357;52.304;4.870;2023-11-21T02:23:07;101378.69;;;18.10;60.76
69245;BME280;56357;52.304;4.870;2023-11-21T02:25:34;101382.59;;;18.09;61.15
69245;BME280;56357;52.304;4.870;2023-11-21T02:28:03;101390.75;;;18.10;61.11
69245;BME280;56357;52.304;4.870;2023-11-21T02:30:30;101388.44;;;18.02;60.72
69245;BME280;56357;52.304;4.870;2023-11-21T02:32:57;101390.41;;;18.02;60.98
69245;BME280;56357;52.304;4.870;2023-11-21T02:35:24;101397.41;;;18.04;60.59
69245;BME280;56357;52.304;4.870;2023-11-21T02:37:52;101391.81;;;18.04;60.83
69245;BME280;56357;52.304;4.870;2023-11-21T02:40:18;101399.63;;;18.02;60.95
69245;BME280;56357;52.304;4.870;2023-11-21T02:42:49;101395.47;;;18.05;60.97
69245;BME280;56357;52.304;4.870;2023-11-21T02:45:17;101393.50;;;18.05;61.03
69245;BME280;56357;52.304;4.870;2023-11-21T02:47:46;101397.41;;;18.04;60.97
69245;BME280;56357;52.304;4.870;2023-11-21T02:50:14;101393.81;;;18.09;60.86
69245;BME280;56357;52.304;4.870;2023-11-21T02:52:40;101390.16;;;18.08;60.55
69245;BME280;56357;52.304;4.870;2023-11-21T02:55:07;101393.50;;;18.05;60.49
69245;BME280;56357;52.304;4.870;2023-11-21T02:57:33;101392.69;;;18.10;60.70
69245;BME280;56357;52.304;4.870;2023-11-21T02:59:59;101394.09;;;18.07;60.81
69245;BME280;56357;52.304;4.870;2023-11-21T03:02:26;101386.84;;;18.11;61.03
69245;BME280;56357;52.304;4.870;2023-11-21T03:04:53;101391.31;;;18.12;60.49
69245;BME280;56357;52.304;4.870;2023-11-21T03:07:19;101399.69;;;18.07;60.99
69245;BME280;56357;52.304;4.870;2023-11-21T03:09:46;101398.09;;;18.21;60.62
69245;BME280;56357;52.304;4.870;2023-11-21T03:12:13;101402.56;;;18.17;61.01
69245;BME280;56357;52.304;4.870;2023-11-21T03:14:41;101406.72;;;18.10;61.32
69245;BME280;56357;52.304;4.870;2023-11-21T03:17:07;101404.50;;;18.44;60.70
69245;BME280;56357;52.304;4.870;2023-11-21T03:19:33;101404.97;;;18.36;60.95
69245;BME280;56357;52.304;4.870;2023-11-21T03:22:00;101409.09;;;18.23;61.05
69245;BME280;56357;52.304;4.870;2023-11-21T03:24:26;101412.78;;;18.28;60.80
69245;BME280;56357;52.304;4.870;2023-11-21T03:26:52;101411.56;;;18.19;61.09
69245;BME280;56357;52.304;4.870;2023-11-21T03:29:19;101416.56;;;18.17;60.93
69245;BME280;56357;52.304;4.870;2023-11-21T03:31:45;101425.47;;;18.41;60.76
69245;BME280;56357;52.304;4.870;2023-11-21T03:34:20;101418.72;;;18.37;61.08
69245;BME280;56357;52.304;4.870;2023-11-21T03:36:46;101434.69;;;18.37;60.79
69245;BME280;56357;52.304;4.870;2023-11-21T03:39:13;101440.81;;;18.28;60.94
69245;BME280;56357;52.304;4.870;2023-11-21T03:41:39;101441.88;;;18.22;60.85
69245;BME280;56357;52.304;4.870;2023-11-21T03:44:06;101438.72;;;18.46;60.52
69245;BME280;56357;52.304;4.870;2023-11-21T03:46:32;101437.31;;;18.48;60.80
69245;BME280;56357;52.304;4.870;2023-11-21T03:48:59;101437.88;;;18.45;60.94
69245;BME280;56357;52.304;4.870;2023-11-21T03:51:25;101445.38;;;18.40;60.79
69245;BME280;56357;52.304;4.870;2023-11-21T03:53:52;101440.34;;;18.42;60.66
69245;BME280;56357;52.304;4.870;2023-11-21T03:56:19;101436.81;;;18.51;60.67
69245;BME280;56357;52.304;4.870;2023-11-21T03:58:47;101443.88;;;18.59;60.81
69245;BME280;56357;52.304;4.870;2023-11-21T04:01:20;101452.44;;;18.42;61.08
69245;BME280;56357;52.304;4.870;2023-11-21T04:03:47;101462.34;;;18.55;60.58
69245;BME280;56357;52.304;4.870;2023-11-21T04:06:14;101463.38;;;18.44;60.54
69245;BME280;56357;52.304;4.870;2023-11-21T04:08:40;101477.13;;;18.45;61.10
69245;BME280;56357;52.304;4.870;2023-11-21T04:11:07;101470.16;;;18.48;61.01
69245;BME280;56357;52.304;4.870;2023-11-21T04:13:33;101482.47;;;18.47;60.91
69245;BME280;56357;52.304;4.870;2023-11-21T04:15:59;101486.25;;;18.62;60.31
69245;BME280;56357;52.304;4.870;2023-11-21T04:18:28;101483.16;;;18.64;60.58
69245;BME280;56357;52.304;4.870;2023-11-21T04:20:54;101486.06;;;18.74;60.58
69245;BME280;56357;52.304;4.870;2023-11-21T04:23:21;101479.47;;;18.58;60.43
69245;BME280;56357;52.304;4.870;2023-11-21T04:25:47;101484.03;;;18.69;60.50
69245;BME280;56357;52.304;4.870;2023-11-21T04:28:13;101491.53;;;18.54;60.89
69245;BME280;56357;52.304;4.870;2023-11-21T04:30:40;101488.84;;;18.69;60.19
69245;BME280;56357;52.304;4.870;2023-11-21T04:33:06;101504.06;;;18.46;60.81
69245;BME280;56357;52.304;4.870;2023-11-21T04:35:32;101502.56;;;18.65;60.57
69245;BME280;56357;52.304;4.870;2023-11-21T04:37:59;101506.09;;;18.56;61.45
69245;BME280;56357;52.304;4.870;2023-11-21T04:40:25;101511.22;;;18.64;60.87
69245;BME280;56357;52.304;4.870;2023-11-21T04:42:52;101502.22;;;18.62;60.79
69245;BME280;56357;52.304;4.870;2023-11-21T04:45:18;101500.66;;;18.76;60.21
69245;BME280;56357;52.304;4.870;2023-11-21T04:47:45;101501.94;;;18.58;61.05
69245;BME280;56357;52.304;4.870;2023-11-21T04:50:11;101511.50;;;18.62;60.92
69245;BME280;56357;52.304;4.870;2023-11-21T04:52:38;101513.22;;;18.63;60.65
69245;BME280;56357;52.304;4.870;2023-11-21T04:55:04;101523.56;;;18.63;60.74
69245;BME280;56357;52.304;4.870;2023-11-21T04:57:32;101518.56;;;18.70;60.38
69245;BME280;56357;52.304;4.870;2023-11-21T04:59:58;101516.25;;;18.62;60.91
69245;BME280;56357;52.304;4.870;2023-11-21T05:02:24;101530.28;;;18.62;61.06
69245;BME280;56357;52.304;4.870;2023-11-21T05:04:51;101530.97;;;18.79;60.59
69245;BME280;56357;52.304;4.870;2023-11-21T05:07:18;101530.22;;;18.88;60.69
69245;BME280;56357;52.304;4.870;2023-11-21T05:09:44;101537.94;;;18.71;60.90
69245;BME280;56357;52.304;4.870;2023-11-21T05:12:12;101539.91;;;18.71;60.69
69245;BME280;56357;52.304;4.870;2023-11-21T05:14:39;101532.59;;;18.70;60.78
69245;BME280;56357;52.304;4.870;2023-11-21T05:17:06;101537.41;;;18.74;61.14
69245;BME280;56357;52.304;4.870;2023-11-21T05:19:34;101553.09;;;18.70;61.03
69245;BME280;56357;52.304;4.870;2023-11-21T05:22:01;101547.31;;;18.87;60.48
69245;BME280;56357;52.304;4.870;2023-11-21T05:24:28;101549.81;;;18.83;60.16
69245;BME280;56357;52.304;4.870;2023-11-21T05:26:54;101559.63;;;18.81;60.22
69245;BME280;56357;52.304;4.870;2023-11-21T05:29:21;101561.78;;;18.69;60.65
69245;BME280;56357;52.304;4.870;2023-11-21T05:31:47;101562.41;;;18.76;60.67
69245;BME280;56357;52.304;4.870;2023-11-21T05:34:13;101559.59;;;18.76;60.62
69245;BME280;56357;52.304;4.870;2023-11-21T05:36:43;101572.56;;;18.82;60.78
69245;BME280;56357;52.304;4.870;2023-11-21T05:39:10;101570.78;;;18.71;61.28
69245;BME280;56357;52.304;4.870;2023-11-21T05:41:37;101569.47;;;18.83;60.32
69245;BME280;56357;52.304;4.870;2023-11-21T05:44:03;101579.31;;;18.86;60.89
69245;BME280;56357;52.304;4.870;2023-11-21T05:46:30;101586.03;;;18.85;60.60
69245;BME280;56357;52.304;4.870;2023-11-21T05:48:56;101590.56;;;18.86;60.63
69245;BME280;56357;52.304;4.870;2023-11-21T05:51:23;101584.69;;;18.92;60.42
69245;BME280;56357;52.304;4.870;2023-11-21T05:53:49;101586.72;;;19.02;60.48
69245;BME280;56357;52.304;4.870;2023-11-21T05:56:16;101597.38;;;19.00;60.07
69245;BME280;56357;52.304;4.870;2023-11-21T05:58:43;101603.53;;;18.97;60.87
69245;BME280;56357;52.304;4.870;2023-11-21T06:01:09;101605.88;;;19.10;59.57
69245;BME280;56357;52.304;4.870;2023-11-21T06:03:38;101606.13;;;19.03;60.17
69245;BME280;56357;52.304;4.870;2023-11-21T06:06:05;101607.78;;;18.99;60.45
69245;BME280;56357;52.304;4.870;2023-11-21T06:08:31;101610.03;;;19.02;60.29
69245;BME280;56357;52.304;4.870;2023-11-21T06:10:58;101617.63;;;19.02;59.95
69245;BME280;56357;52.304;4.870;2023-11-21T06:13:24;101614.78;;;18.97;60.30
69245;BME280;56357;52.304;4.870;2023-11-21T06:16:00;101615.63;;;18.97;60.51
69245;BME280;56357;52.304;4.870;2023-11-21T06:18:26;101624.31;;;18.96;60.46
69245;BME280;56357;52.304;4.870;2023-11-21T06:20:52;101624.16;;;19.12;60.74
69245;BME280;56357;52.304;4.870;2023-11-21T06:23:19;101627.75;;;19.03;60.03
69245;BME280;56357;52.304;4.870;2023-11-21T06:25:45;101632.88;;;19.11;60.77
69245;BME280;56357;52.304;4.870;2023-11-21T06:28:12;101638.97;;;19.03;60.42
69245;BME280;56357;52.304;4.870;2023-11-21T06:30:40;101637.06;;;19.13;60.54
69245;BME280;56357;52.304;4.870;2023-11-21T06:33:07;101634.91;;;19.21;60.23
69245;BME280;56357;52.304;4.870;2023-11-21T06:35:34;101630.13;;;19.21;60.95
69245;BME280;56357;52.304;4.870;2023-11-21T06:38:00;101645.25;;;19.15;60.83
69245;BME280;56357;52.304;4.870;2023-11-21T06:40:28;101638.50;;;19.16;61.32
69245;BME280;56357;52.304;4.870;2023-11-21T06:42:54;101646.66;;;19.17;61.18
69245;BME280;56357;52.304;4.870;2023-11-21T06:45:21;101645.56;;;19.18;61.30
69245;BME280;56357;52.304;4.870;2023-11-21T06:47:48;101646.13;;;19.21;61.50
69245;BME280;56357;52.304;4.870;2023-11-21T06:50:14;101656.78;;;19.18;61.11
69245;BME280;56357;52.304;4.870;2023-11-21T06:52:41;101659.22;;;19.10;62.08
69245;BME280;56357;52.304;4.870;2023-11-21T06:55:08;101660.22;;;19.26;61.58
69245;BME280;56357;52.304;4.870;2023-11-21T06:57:35;101674.81;;;19.23;61.81
69245;BME280;56357;52.304;4.870;2023-11-21T07:00:02;101676.06;;;19.05;62.16
69245;BME280;56357;52.304;4.870;2023-11-21T07:02:28;101674.69;;;19.07;62.23
69245;BME280;56357;52.304;4.870;2023-11-21T07:04:55;101681.19;;;19.13;61.61
69245;BME280;56357;52.304;4.870;2023-11-21T07:07:21;101689.06;;;19.16;62.08
69245;BME280;56357;52.304;4.870;2023-11-21T07:09:47;101689.38;;;19.19;62.22
69245;BME280;56357;52.304;4.870;2023-11-21T07:12:14;101702.19;;;19.05;62.07
69245;BME280;56357;52.304;4.870;2023-11-21T07:14:40;101700.56;;;19.14;62.15
69245;BME280;56357;52.304;4.870;2023-11-21T07:17:10;101700.25;;;19.11;62.37
69245;BME280;56357;52.304;4.870;2023-11-21T07:19:37;101704.34;;;18.98;60.88
69245;BME280;56357;52.304;4.870;2023-11-21T07:22:04;101711.75;;;18.83;61.54
69245;BME280;56357;52.304;4.870;2023-11-21T07:24:32;101710.50;;;18.95;61.11
69245;BME280;56357;52.304;4.870;2023-11-21T07:26:58;101717.19;;;18.94;61.27
69245;BME280;56357;52.304;4.870;2023-11-21T07:29:25;101724.56;;;19.00;60.83
69245;BME280;56357;52.304;4.870;2023-11-21T07:31:54;101723.50;;;19.06;60.78
69245;BME280;56357;52.304;4.870;2023-11-21T07:34:20;101731.38;;;19.09;60.93
69245;BME280;56357;52.304;4.870;2023-11-21T07:36:47;101732.72;;;19.02;60.77
69245;BME280;56357;52.304;4.870;2023-11-21T07:39:13;101735.00;;;19.05;60.70
69245;BME280;56357;52.304;4.870;2023-11-21T07:41:41;101741.25;;;19.12;60.36
69245;BME280;56357;52.304;4.870;2023-11-21T07:44:14;101756.31;;;19.01;60.84
69245;BME280;56357;52.304;4.870;2023-11-21T07:46:40;101752.13;;;19.03;60.65
69245;BME280;56357;52.304;4.870;2023-11-21T07:49:07;101759.09;;;19.01;61.00
69245;BME280;56357;52.304;4.870;2023-11-21T07:51:34;101754.88;;;18.98;61.27
69245;BME280;56357;52.304;4.870;2023-11-21T07:54:00;101761.53;;;18.92;61.35
69245;BME280;56357;52.304;4.870;2023-11-21T07:56:26;101763.09;;;19.05;60.81
69245;BME280;56357;52.304;4.870;2023-11-21T07:58:53;101772.69;;;19.09;60.58
69245;BME280;56357;52.304;4.870;2023-11-21T08:01:19;101770.03;;;18.97;60.87
69245;BME280;56357;52.304;4.870;2023-11-21T08:03:46;101779.63;;;19.01;60.64
69245;BME280;56357;52.304;4.870;2023-11-21T08:06:16;101776.69;;;18.91;61.26
69245;BME280;56357;52.304;4.870;2023-11-21T08:08:42;101786.28;;;18.95;61.06
69245;BME280;56357;52.304;4.870;2023-11-21T08:11:09;101797.41;;;19.12;61.36
69245;BME280;56357;52.304;4.870;2023-11-21T08:13:36;101797.28;;;19.02;60.74
69245;BME280;56357;52.304;4.870;2023-11-21T08:16:02;101800.69;;;19.04;60.48
69245;BME280;56357;52.304;4.870;2023-11-21T08:18:30;101811.00;;;18.98;61.17
69245;BME280;56357;52.304;4.870;2023-11-21T08:20:57;101814.22;;;18.85;61.42
69245;BME280;56357;52.304;4.870;2023-11-21T08:23:23;101822.50;;;18.97;60.95
69245;BME280;56357;52.304;4.870;2023-11-21T08:25:50;101823.63;;;18.96;61.14
69245;BME280;56357;52.304;4.870;2023-11-21T08:28:17;101823.63;;;18.96;61.39
69245;BME280;56357;52.304;4.870;2023-11-21T08:30:44;101825.84;;;18.94;61.10
69245;BME280;56357;52.304;4.870;2023-11-21T08:33:10;101826.94;;;18.93;61.09
69245;BME280;56357;52.304;4.870;2023-11-21T08:35:38;101840.13;;;18.92;61.53
69245;BME280;56357;52.304;4.870;2023-11-21T08:38:04;101847.91;;;18.85;61.03
69245;BME280;56357;52.304;4.870;2023-11-21T08:40:31;101844.78;;;18.82;60.69
69245;BME280;56357;52.304;4.870;2023-11-21T08:42:57;101846.00;;;18.91;61.07
69245;BME280;56357;52.304;4.870;2023-11-21T08:45:25;101837.59;;;18.91;61.08
69245;BME280;56357;52.304;4.870;2023-11-21T08:48:01;101850.00;;;18.95;61.38
69245;BME280;56357;52.304;4.870;2023-11-21T08:50:28;101852.66;;;18.85;61.68
69245;BME280;56357;52.304;4.870;2023-11-21T08:52:54;101858.88;;;18.87;60.91
69245;BME280;56357;52.304;4.870;2023-11-21T08:55:21;101862.22;;;18.84;60.80
69245;BME280;56357;52.304;4.870;2023-11-21T08:57:48;101861.91;;;18.80;60.98
69245;BME280;56357;52.304;4.870;2023-11-21T09:00:14;101871.69;;;18.78;61.14
69245;BME280;56357;52.304;4.870;2023-11-21T09:02:48;101875.13;;;18.85;61.39
69245;BME280;56357;52.304;4.870;2023-11-21T09:05:14;101880.63;;;18.75;61.17
69245;BME280;56357;52.304;4.870;2023-11-21T09:07:42;101875.97;;;18.85;61.08
69245;BME280;56357;52.304;4.870;2023-11-21T09:10:11;101874.66;;;18.93;60.64
69245;BME280;56357;52.304;4.870;2023-11-21T09:12:37;101887.06;;;18.97;61.53
69245;BME280;56357;52.304;4.870;2023-11-21T09:15:05;101897.91;;;18.88;60.79
69245;BME280;56357;52.304;4.870;2023-11-21T09:17:33;101901.50;;;18.84;60.84
69245;BME280;56357;52.304;4.870;2023-11-21T09:20:00;101904.59;;;18.82;61.06
69245;BME280;56357;52.304;4.870;2023-11-21T09:22:28;101916.63;;;18.83;60.57
69245;BME280;56357;52.304;4.870;2023-11-21T09:24:57;101918.25;;;18.79;61.07
69245;BME280;56357;52.304;4.870;2023-11-21T09:27:23;101930.88;;;18.76;61.06
69245;BME280;56357;52.304;4.870;2023-11-21T09:29:50;101924.03;;;18.89;61.42
69245;BME280;56357;52.304;4.870;2023-11-21T09:32:18;101929.25;;;18.80;61.10
69245;BME280;56357;52.304;4.870;2023-11-21T09:34:44;101935.19;;;18.84;60.76
69245;BME280;56357;52.304;4.870;2023-11-21T09:37:11;101944.63;;;18.78;60.97
69245;BME280;56357;52.304;4.870;2023-11-21T09:39:37;101954.50;;;18.80;60.94
69245;BME280;56357;52.304;4.870;2023-11-21T09:42:09;101962.59;;;18.77;61.03
69245;BME280;56357;52.304;4.870;2023-11-21T09:47:26;101970.16;;;18.76;60.64
69245;BME280;56357;52.304;4.870;2023-11-21T09:49:54;101976.16;;;18.63;61.28
69245;BME280;56357;52.304;4.870;2023-11-21T09:52:25;101982.41;;;18.70;60.69
69245;BME280;56357;52.304;4.870;2023-11-21T09:54:52;101974.50;;;18.67;60.84
69245;BME280;56357;52.304;4.870;2023-11-21T09:57:20;101992.19;;;18.68;60.93
69245;BME280;56357;52.304;4.870;2023-11-21T09:59:51;101993.22;;;18.78;61.50
69245;BME280;56357;52.304;4.870;2023-11-21T10:02:20;102004.59;;;18.72;60.86
69245;BME280;56357;52.304;4.870;2023-11-21T10:04:48;102006.31;;;18.73;60.77
69245;BME280;56357;52.304;4.870;2023-11-21T10:07:17;102002.38;;;18.74;61.11
69245;BME280;56357;52.304;4.870;2023-11-21T10:09:54;102015.41;;;18.80;60.50
69245;BME280;56357;52.304;4.870;2023-11-21T10:12:22;102015.34;;;18.75;60.65
69245;BME280;56357;52.304;4.870;2023-11-21T10:14:51;102020.09;;;18.74;60.55
69245;BME280;56357;52.304;4.870;2023-11-21T10:17:22;102031.56;;;18.73;60.86
69245;BME280;56357;52.304;4.870;2023-11-21T10:19:51;102034.53;;;18.66;60.44
69245;BME280;56357;52.304;4.870;2023-11-21T10:22:21;102034.28;;;18.68;61.00
69245;BME280;56357;52.304;4.870;2023-11-21T10:24:48;102036.41;;;18.61;61.36
69245;BME280;56357;52.304;4.870;2023-11-21T10:27:14;102040.00;;;18.73;60.93
69245;BME280;56357;52.304;4.870;2023-11-21T10:29:41;102043.56;;;18.68;60.87
69245;BME280;56357;52.304;4.870;2023-11-21T10:32:07;102048.25;;;18.63;61.29
69245;BME280;56357;52.304;4.870;2023-11-21T10:34:34;102051.72;;;18.70;61.00
69245;BME280;56357;52.304;4.870;2023-11-21T10:37:13;102050.78;;;18.64;60.80
69245;BME280;56357;52.304;4.870;2023-11-21T10:39:40;102061.91;;;18.76;60.29
69245;BME280;56357;52.304;4.870;2023-11-21T10:42:09;102061.31;;;18.74;60.45
69245;BME280;56357;52.304;4.870;2023-11-21T10:44:35;102060.13;;;18.70;60.41
69245;BME280;56357;52.304;4.870;2023-11-21T10:47:03;102057.25;;;18.65;60.26
69245;BME280;56357;52.304;4.870;2023-11-21T10:49:30;102064.06;;;18.69;60.64
69245;BME280;56357;52.304;4.870;2023-11-21T10:51:56;102068.56;;;18.70;60.58
69245;BME280;56357;52.304;4.870;2023-11-21T10:54:24;102071.88;;;18.67;60.62
69245;BME280;56357;52.304;4.870;2023-11-21T10:56:57;102077.31;;;18.73;60.26
69245;BME280;56357;52.304;4.870;2023-11-21T10:59:26;102067.97;;;18.68;60.74
69245;BME280;56357;52.304;4.870;2023-11-21T11:01:57;102085.38;;;18.70;60.45
69245;BME280;56357;52.304;4.870;2023-11-21T11:04:27;102077.81;;;18.70;60.50
69245;BME280;56357;52.304;4.870;2023-11-21T11:07:03;102083.53;;;18.59;60.72
69245;BME280;56357;52.304;4.870;2023-11-21T11:09:31;102097.41;;;18.65;60.03
69245;BME280;56357;52.304;4.870;2023-11-21T11:11:58;102087.84;;;18.66;60.21
69245;BME280;56357;52.304;4.870;2023-11-21T11:14:26;102090.34;;;18.63;60.78
69245;BME280;56357;52.304;4.870;2023-11-21T11:16:54;102095.84;;;18.58;60.39
69245;BME280;56357;52.304;4.870;2023-11-21T11:19:20;102093.88;;;18.58;60.04
69245;BME280;56357;52.304;4.870;2023-11-21T11:30:31;102100.03;;;18.72;60.46
69245;BME280;56357;52.304;4.870;2023-11-21T11:33:27;102097.13;;;18.67;60.56
69245;BME280;56357;52.304;4.870;2023-11-21T11:38:34;102105.38;;;18.57;60.24
69245;BME280;56357;52.304;4.870;2023-11-21T11:41:03;102099.34;;;18.65;60.28
69245;BME280;56357;52.304;4.870;2023-11-21T11:43:30;102110.31;;;18.66;60.24
69245;BME280;56357;52.304;4.870;2023-11-21T11:45:58;102104.78;;;18.55;60.43
69245;BME280;56357;52.304;4.870;2023-11-21T11:48:25;102103.25;;;18.64;60.83
69245;BME280;56357;52.304;4.870;2023-11-21T11:51:05;102113.38;;;18.65;60.39
69245;BME280;56357;52.304;4.870;2023-11-21T11:53:44;102111.25;;;18.72;59.51
69245;BME280;56357;52.304;4.870;2023-11-21T11:56:31;102120.41;;;18.67;60.08
69245;BME280;56357;52.304;4.870;2023-11-21T11:59:01;102114.31;;;18.70;59.58
69245;BME280;56357;52.304;4.870;2023-11-21T12:01:32;102118.56;;;18.73;59.54
69245;BME280;56357;52.304;4.870;2023-11-21T12:06:39;102126.41;;;18.71;59.76
69245;BME280;56357;52.304;4.870;2023-11-21T12:09:06;102127.59;;;18.75;60.22
69245;BME280;56357;52.304;4.870;2023-11-21T12:11:33;102129.94;;;18.66;59.58
69245;BME280;56357;52.304;4.870;2023-11-21T12:14:09;102133.03;;;18.65;60.46
69245;BME280;56357;52.304;4.870;2023-11-21T12:16:36;102131.63;;;18.67;60.02
69245;BME280;56357;52.304;4.870;2023-11-21T12:19:02;102145.44;;;18.69;59.80
69245;BME280;56357;52.304;4.870;2023-11-21T12:21:29;102149.34;;;18.68;59.48
69245;BME280;56357;52.304;4.870;2023-11-21T12:23:57;102152.31;;;18.61;60.09
69245;BME280;56357;52.304;4.870;2023-11-21T12:26:24;102150.72;;;18.65;60.28
69245;BME280;56357;52.304;4.870;2023-11-21T12:28:53;102148.25;;;18.69;59.49
69245;BME280;56357;52.304;4.870;2023-11-21T12:31:21;102161.06;;;18.65;59.92
69245;BME280;56357;52.304;4.870;2023-11-21T12:33:47;102151.53;;;18.66;59.49
69245;BME280;56357;52.304;4.870;2023-11-21T12:36:14;102169.91;;;18.73;59.57
69245;BME280;56357;52.304;4.870;2023-11-21T12:38:41;102167.88;;;18.69;59.71
69245;BME280;56357;52.304;4.870;2023-11-21T12:41:09;102178.06;;;18.58;59.78
69245;BME280;56357;52.304;4.870;2023-11-21T12:43:36;102175.72;;;18.67;59.67
69245;BME280;56357;52.304;4.870;2023-11-21T12:46:08;102172.31;;;18.65;59.71
69245;BME280;56357;52.304;4.870;2023-11-21T12:48:39;102174.34;;;18.69;59.62
69245;BME280;56357;52.304;4.870;2023-11-21T12:51:07;102182.81;;;18.58;59.88
69245;BME280;56357;52.304;4.870;2023-11-21T12:53:35;102189.81;;;18.55;60.20
69245;BME280;56357;52.304;4.870;2023-11-21T12:56:07;102192.22;;;18.63;59.97
69245;BME280;56357;52.304;4.870;2023-11-21T12:58:35;102193.63;;;18.66;60.41
69245;BME280;56357;52.304;4.870;2023-11-21T13:01:02;102194.63;;;18.60;59.45
69245;BME280;56357;52.304;4.870;2023-11-21T13:03:29;102202.09;;;18.54;59.82
69245;BME280;56357;52.304;4.870;2023-11-21T13:05:56;102195.75;;;18.59;59.77
69245;BME280;56357;52.304;4.870;2023-11-21T13:08:25;102214.06;;;18.61;59.39